sensor_id;sensor_type;location;lat;lon;timestamp;pressure;altitude;pressure_sealevel;temperature;humidity
77147;BME280;66121;52.584;9.694;2024-02-04T00:02:22;101409.94;;;7.20;100.00
77147;BME280;66121;52.584;9.694;2024-02-04T00:04:50;101412.00;;;7.23;100.00
77147;BME280;66121;52.584;9.694;2024-02-04T00:07:15;101414.97;;;7.18;100.00
77147;BME280;66121;52.584;9.694;2024-02-04T00:09:41;101408.53;;;7.13;100.00
77147;BME280;66121;52.584;9.694;2024-02-04T00:12:06;101409.34;;;7.14;100.00
77147;BME280;66121;52.584;9.694;2024-02-04T00:14:32;101402.38;;;7.04;100.00
77147;BME280;66121;52.584;9.694;2024-02-04T00:16:57;101392.97;;;6.93;100.00
77147;BME280;66121;52.584;9.694;2024-02-04T00:19:24;101382.78;;;6.82;100.00
77147;BME280;66121;52.584;9.694;2024-02-04T00:21:49;101394.00;;;6.89;100.00
77147;BME280;66121;52.584;9.694;2024-02-04T00:24:14;101391.03;;;6.82;100.00
77147;BME280;66121;52.584;9.694;2024-02-04T00:26:40;101398.34;;;6.78;100.00
77147;BME280;66121;52.584;9.694;2024-02-04T00:29:05;101396.59;;;6.73;100.00
77147;BME280;66121;52.584;9.694;2024-02-04T00:31:30;101390.44;;;6.76;100.00
77147;BME280;66121;52.584;9.694;2024-02-04T00:33:56;101387.91;;;6.71;100.00
77147;BME280;66121;52.584;9.694;2024-02-04T00:36:21;101377.63;;;6.68;100.00
77147;BME280;66121;52.584;9.694;2024-02-04T00:38:46;101383.00;;;6.65;100.00
77147;BME280;66121;52.584;9.694;2024-02-04T00:41:12;101341.84;;;6.40;100.00
77147;BME280;66121;52.584;9.694;2024-02-04T00:43:37;101376.50;;;6.69;100.00
77147;BME280;66121;52.584;9.694;2024-02-04T00:46:02;101365.50;;;6.57;100.00
77147;BME280;66121;52.584;9.694;2024-02-04T00:48:29;101363.00;;;6.64;100.00
77147;BME280;66121;52.584;9.694;2024-02-04T00:50:54;101344.03;;;6.59;100.00
77147;BME280;66121;52.584;9.694;2024-02-04T00:53:19;101340.03;;;6.57;100.00
77147;BME280;66121;52.584;9.694;2024-02-04T00:55:45;101350.75;;;6.49;100.00
77147;BME280;66121;52.584;9.694;2024-02-04T00:58:10;101351.19;;;6.52;100.00
77147;BME280;66121;52.584;9.694;2024-02-04T01:00:35;101362.63;;;6.54;100.00
77147;BME280;66121;52.584;9.694;2024-02-04T01:03:01;101324.91;;;6.38;100.00
77147;BME280;66121;52.584;9.694;2024-02-04T01:05:26;101355.34;;;6.58;100.00
77147;BME280;66121;52.584;9.694;2024-02-04T01:07:51;101355.13;;;6.63;100.00
77147;BME280;66121;52.584;9.694;2024-02-04T01:10:17;101361.97;;;6.57;100.00
77147;BME280;66121;52.584;9.694;2024-02-04T01:12:42;101361.84;;;6.53;100.00
77147;BME280;66121;52.584;9.694;2024-02-04T01:15:08;101354.50;;;6.45;100.00
77147;BME280;66121;52.584;9.694;2024-02-04T01:17:33;101365.47;;;6.45;100.00
77147;BME280;66121;52.584;9.694;2024-02-04T01:19:59;101363.34;;;6.51;100.00
77147;BME280;66121;52.584;9.694;2024-02-04T01:22:24;101358.06;;;6.45;100.00
77147;BME280;66121;52.584;9.694;2024-02-04T01:24:52;101361.78;;;6.41;100.00
77147;BME280;66121;52.584;9.694;2024-02-04T01:27:17;101364.06;;;6.39;100.00
77147;BME280;66121;52.584;9.694;2024-02-04T01:29:42;101359.16;;;6.32;100.00
77147;BME280;66121;52.584;9.694;2024-02-04T01:32:08;101366.78;;;6.27;100.00
77147;BME280;66121;52.584;9.694;2024-02-04T01:34:33;101365.66;;;6.28;100.00
77147;BME280;66121;52.584;9.694;2024-02-04T01:36:58;101360.63;;;6.30;100.00
77147;BME280;66121;52.584;9.694;2024-02-04T01:39:24;101361.53;;;6.34;100.00
77147;BME280;66121;52.584;9.694;2024-02-04T01:41:50;101372.19;;;6.35;100.00
77147;BME280;66121;52.584;9.694;2024-02-04T01:44:16;101379.72;;;6.38;100.00
77147;BME280;66121;52.584;9.694;2024-02-04T01:46:42;101382.25;;;6.43;100.00
77147;BME280;66121;52.584;9.694;2024-02-04T01:49:07;101373.78;;;6.36;100.00
77147;BME280;66121;52.584;9.694;2024-02-04T01:51:33;101378.34;;;6.32;100.00
77147;BME280;66121;52.584;9.694;2024-02-04T01:53:59;101367.84;;;6.34;100.00
77147;BME280;66121;52.584;9.694;2024-02-04T01:56:25;101373.53;;;6.29;100.00
77147;BME280;66121;52.584;9.694;2024-02-04T01:58:50;101378.88;;;6.26;100.00
77147;BME280;66121;52.584;9.694;2024-02-04T02:01:16;101374.19;;;6.26;100.00
77147;BME280;66121;52.584;9.694;2024-02-04T02:03:41;101366.19;;;6.21;100.00
77147;BME280;66121;52.584;9.694;2024-02-04T02:06:07;101349.28;;;6.19;100.00
77147;BME280;66121;52.584;9.694;2024-02-04T02:08:32;101360.50;;;6.26;100.00
77147;BME280;66121;52.584;9.694;2024-02-04T02:11:15;101364.03;;;6.27;100.00
77147;BME280;66121;52.584;9.694;2024-02-04T02:13:45;101357.34;;;6.36;100.00
77147;BME280;66121;52.584;9.694;2024-02-04T02:16:15;101354.16;;;6.46;100.00
77147;BME280;66121;52.584;9.694;2024-02-04T02:18:48;101318.59;;;6.26;100.00
77147;BME280;66121;52.584;9.694;2024-02-04T02:21:44;101340.56;;;6.38;100.00
77147;BME280;66121;52.584;9.694;2024-02-04T02:26:50;101350.81;;;6.29;100.00
77147;BME280;66121;52.584;9.694;2024-02-04T02:29:16;101359.38;;;6.27;100.00
77147;BME280;66121;52.584;9.694;2024-02-04T02:31:42;101359.81;;;6.29;100.00
77147;BME280;66121;52.584;9.694;2024-02-04T02:34:09;101348.88;;;6.29;100.00
77147;BME280;66121;52.584;9.694;2024-02-04T02:36:48;101341.03;;;6.40;100.00
77147;BME280;66121;52.584;9.694;2024-02-04T02:39:18;101345.63;;;6.48;100.00
77147;BME280;66121;52.584;9.694;2024-02-04T02:41:49;101333.94;;;6.51;100.00
77147;BME280;66121;52.584;9.694;2024-02-04T02:44:16;101333.50;;;6.49;100.00
77147;BME280;66121;52.584;9.694;2024-02-04T02:46:42;101333.59;;;6.40;100.00
77147;BME280;66121;52.584;9.694;2024-02-04T02:49:08;101351.31;;;6.43;100.00
77147;BME280;66121;52.584;9.694;2024-02-04T02:51:34;101336.22;;;6.49;100.00
77147;BME280;66121;52.584;9.694;2024-02-04T02:53:59;101340.47;;;6.46;100.00
77147;BME280;66121;52.584;9.694;2024-02-04T02:56:24;101339.66;;;6.46;100.00
77147;BME280;66121;52.584;9.694;2024-02-04T02:58:50;101330.88;;;6.40;100.00
77147;BME280;66121;52.584;9.694;2024-02-04T03:01:15;101341.94;;;6.44;100.00
77147;BME280;66121;52.584;9.694;2024-02-04T03:03:40;101332.16;;;6.55;100.00
77147;BME280;66121;52.584;9.694;2024-02-04T03:06:06;101328.81;;;6.49;100.00
77147;BME280;66121;52.584;9.694;2024-02-04T03:08:31;101329.72;;;6.54;100.00
77147;BME280;66121;52.584;9.694;2024-02-04T03:10:57;101320.00;;;6.44;100.00
77147;BME280;66121;52.584;9.694;2024-02-04T03:13:22;101312.22;;;6.46;100.00
77147;BME280;66121;52.584;9.694;2024-02-04T03:15:47;101308.00;;;6.36;100.00
77147;BME280;66121;52.584;9.694;2024-02-04T03:18:13;101309.28;;;6.51;100.00
77147;BME280;66121;52.584;9.694;2024-02-04T03:20:38;101304.16;;;6.49;100.00
77147;BME280;66121;52.584;9.694;2024-02-04T03:23:03;101301.28;;;6.58;100.00
77147;BME280;66121;52.584;9.694;2024-02-04T03:25:29;101310.75;;;6.61;100.00
77147;BME280;66121;52.584;9.694;2024-02-04T03:27:54;101292.72;;;6.60;100.00
77147;BME280;66121;52.584;9.694;2024-02-04T03:30:20;101289.31;;;6.63;100.00
77147;BME280;66121;52.584;9.694;2024-02-04T03:32:45;101289.63;;;6.61;100.00
77147;BME280;66121;52.584;9.694;2024-02-04T03:35:11;101289.78;;;6.65;100.00
77147;BME280;66121;52.584;9.694;2024-02-04T03:37:36;101268.97;;;6.64;100.00
77147;BME280;66121;52.584;9.694;2024-02-04T03:40:01;101275.47;;;6.59;100.00
77147;BME280;66121;52.584;9.694;2024-02-04T03:42:27;101274.34;;;6.60;100.00
77147;BME280;66121;52.584;9.694;2024-02-04T03:44:53;101257.19;;;6.51;100.00
77147;BME280;66121;52.584;9.694;2024-02-04T03:47:19;101242.81;;;6.42;100.00
77147;BME280;66121;52.584;9.694;2024-02-04T03:49:44;101254.34;;;6.47;100.00
77147;BME280;66121;52.584;9.694;2024-02-04T03:52:09;101244.19;;;6.48;100.00
77147;BME280;66121;52.584;9.694;2024-02-04T03:54:35;101241.91;;;6.50;100.00
77147;BME280;66121;52.584;9.694;2024-02-04T03:57:00;101234.00;;;6.48;100.00
77147;BME280;66121;52.584;9.694;2024-02-04T03:59:25;101237.09;;;6.47;100.00
77147;BME280;66121;52.584;9.694;2024-02-04T04:01:51;101241.09;;;6.37;100.00
77147;BME280;66121;52.584;9.694;2024-02-04T04:04:18;101229.91;;;6.30;100.00
77147;BME280;66121;52.584;9.694;2024-02-04T04:06:45;101223.38;;;6.23;100.00
77147;BME280;66121;52.584;9.694;2024-02-04T04:09:11;101226.66;;;6.28;100.00
77147;BME280;66121;52.584;9.694;2024-02-04T04:11:36;101218.94;;;6.30;100.00
77147;BME280;66121;52.584;9.694;2024-02-04T04:14:02;101212.06;;;6.36;100.00
77147;BME280;66121;52.584;9.694;2024-02-04T04:16:27;101220.75;;;6.38;100.00
77147;BME280;66121;52.584;9.694;2024-02-04T04:18:53;101219.16;;;6.25;100.00
77147;BME280;66121;52.584;9.694;2024-02-04T04:21:18;101228.19;;;6.38;100.00
77147;BME280;66121;52.584;9.694;2024-02-04T04:23:44;101231.72;;;6.38;100.00
77147;BME280;66121;52.584;9.694;2024-02-04T04:26:09;101226.34;;;6.30;100.00
77147;BME280;66121;52.584;9.694;2024-02-04T04:28:35;101222.47;;;6.43;100.00
77147;BME280;66121;52.584;9.694;2024-02-04T04:31:00;101225.09;;;6.52;100.00
77147;BME280;66121;52.584;9.694;2024-02-04T04:33:25;101206.59;;;6.48;100.00
77147;BME280;66121;52.584;9.694;2024-02-04T04:35:51;101198.50;;;6.52;100.00
77147;BME280;66121;52.584;9.694;2024-02-04T04:38:16;101200.78;;;6.50;100.00
77147;BME280;66121;52.584;9.694;2024-02-04T04:40:41;101197.91;;;6.46;100.00
77147;BME280;66121;52.584;9.694;2024-02-04T04:43:07;101193.47;;;6.42;100.00
77147;BME280;66121;52.584;9.694;2024-02-04T04:45:32;101198.13;;;6.41;100.00
77147;BME280;66121;52.584;9.694;2024-02-04T04:47:57;101176.00;;;6.22;100.00
77147;BME280;66121;52.584;9.694;2024-02-04T04:50:23;101191.16;;;6.44;100.00
77147;BME280;66121;52.584;9.694;2024-02-04T04:52:48;101171.19;;;6.43;100.00
77147;BME280;66121;52.584;9.694;2024-02-04T04:55:14;101153.47;;;6.41;100.00
77147;BME280;66121;52.584;9.694;2024-02-04T04:57:39;101134.88;;;6.34;100.00
77147;BME280;66121;52.584;9.694;2024-02-04T05:00:05;101140.34;;;6.34;100.00
77147;BME280;66121;52.584;9.694;2024-02-04T05:02:37;101147.78;;;6.34;100.00
77147;BME280;66121;52.584;9.694;2024-02-04T05:05:02;101135.91;;;6.30;100.00
77147;BME280;66121;52.584;9.694;2024-02-04T05:07:28;101135.78;;;6.38;100.00
77147;BME280;66121;52.584;9.694;2024-02-04T05:09:53;101107.00;;;6.44;100.00
77147;BME280;66121;52.584;9.694;2024-02-04T05:12:19;101114.34;;;6.40;100.00
77147;BME280;66121;52.584;9.694;2024-02-04T05:14:44;101098.22;;;6.39;100.00
77147;BME280;66121;52.584;9.694;2024-02-04T05:17:09;101104.16;;;6.29;100.00
77147;BME280;66121;52.584;9.694;2024-02-04T05:19:35;101097.44;;;6.26;100.00
77147;BME280;66121;52.584;9.694;2024-02-04T05:22:01;101098.59;;;6.25;100.00
77147;BME280;66121;52.584;9.694;2024-02-04T05:24:27;101077.34;;;6.22;100.00
77147;BME280;66121;52.584;9.694;2024-02-04T05:26:52;101080.31;;;6.29;100.00
77147;BME280;66121;52.584;9.694;2024-02-04T05:29:17;101069.69;;;6.28;100.00
77147;BME280;66121;52.584;9.694;2024-02-04T05:31:43;101054.03;;;6.28;100.00
77147;BME280;66121;52.584;9.694;2024-02-04T05:34:12;101053.03;;;6.33;100.00
77147;BME280;66121;52.584;9.694;2024-02-04T05:36:37;101063.50;;;6.31;100.00
77147;BME280;66121;52.584;9.694;2024-02-04T05:39:10;101050.97;;;6.30;100.00
77147;BME280;66121;52.584;9.694;2024-02-04T05:41:36;101027.56;;;6.32;100.00
77147;BME280;66121;52.584;9.694;2024-02-04T05:44:02;101037.13;;;6.38;100.00
77147;BME280;66121;52.584;9.694;2024-02-04T05:46:28;101032.88;;;6.41;100.00
77147;BME280;66121;52.584;9.694;2024-02-04T05:48:53;101025.47;;;6.41;100.00
77147;BME280;66121;52.584;9.694;2024-02-04T05:51:18;100992.81;;;6.36;100.00
77147;BME280;66121;52.584;9.694;2024-02-04T05:53:44;100990.88;;;6.37;100.00
77147;BME280;66121;52.584;9.694;2024-02-04T05:56:09;100980.81;;;6.41;100.00
77147;BME280;66121;52.584;9.694;2024-02-04T05:58:34;100966.41;;;6.44;100.00
77147;BME280;66121;52.584;9.694;2024-02-04T06:01:00;100964.28;;;6.37;100.00
77147;BME280;66121;52.584;9.694;2024-02-04T06:03:25;100943.03;;;6.34;100.00
77147;BME280;66121;52.584;9.694;2024-02-04T06:05:50;100926.47;;;6.31;100.00
77147;BME280;66121;52.584;9.694;2024-02-04T06:08:16;100928.47;;;6.46;100.00
77147;BME280;66121;52.584;9.694;2024-02-04T06:10:41;100904.53;;;6.43;100.00
77147;BME280;66121;52.584;9.694;2024-02-04T06:13:07;100886.38;;;6.38;100.00
77147;BME280;66121;52.584;9.694;2024-02-04T06:15:33;100904.31;;;6.36;100.00
77147;BME280;66121;52.584;9.694;2024-02-04T06:18:01;100860.53;;;6.24;100.00
77147;BME280;66121;52.584;9.694;2024-02-04T06:20:26;100853.97;;;6.40;100.00
77147;BME280;66121;52.584;9.694;2024-02-04T06:22:51;100857.13;;;6.42;100.00
77147;BME280;66121;52.584;9.694;2024-02-04T06:25:17;100850.50;;;6.43;100.00
77147;BME280;66121;52.584;9.694;2024-02-04T06:27:42;100842.69;;;6.30;100.00
77147;BME280;66121;52.584;9.694;2024-02-04T06:30:08;100836.66;;;6.24;100.00
77147;BME280;66121;52.584;9.694;2024-02-04T06:32:33;100859.34;;;6.37;100.00
77147;BME280;66121;52.584;9.694;2024-02-04T06:34:58;100851.38;;;6.32;100.00
77147;BME280;66121;52.584;9.694;2024-02-04T06:37:24;100843.75;;;6.25;100.00
77147;BME280;66121;52.584;9.694;2024-02-04T06:39:51;100851.31;;;6.16;100.00
77147;BME280;66121;52.584;9.694;2024-02-04T06:42:16;100879.81;;;6.27;100.00
77147;BME280;66121;52.584;9.694;2024-02-04T06:44:43;100902.56;;;6.16;100.00
77147;BME280;66121;52.584;9.694;2024-02-04T06:47:09;100913.63;;;6.19;100.00
77147;BME280;66121;52.584;9.694;2024-02-04T06:49:37;100917.44;;;6.15;100.00
77147;BME280;66121;52.584;9.694;2024-02-04T06:52:03;100922.91;;;6.15;100.00
77147;BME280;66121;52.584;9.694;2024-02-04T06:54:28;100931.22;;;6.18;100.00
77147;BME280;66121;52.584;9.694;2024-02-04T06:56:53;100932.13;;;6.22;100.00
77147;BME280;66121;52.584;9.694;2024-02-04T06:59:19;100952.16;;;6.38;100.00
77147;BME280;66121;52.584;9.694;2024-02-04T07:01:44;100938.75;;;6.21;100.00
77147;BME280;66121;52.584;9.694;2024-02-04T07:04:09;100954.00;;;6.34;100.00
77147;BME280;66121;52.584;9.694;2024-02-04T07:06:35;100958.78;;;6.37;100.00
77147;BME280;66121;52.584;9.694;2024-02-04T07:09:00;100920.25;;;6.18;100.00
77147;BME280;66121;52.584;9.694;2024-02-04T07:11:25;100922.38;;;6.37;100.00
77147;BME280;66121;52.584;9.694;2024-02-04T07:13:51;100930.44;;;6.45;100.00
77147;BME280;66121;52.584;9.694;2024-02-04T07:16:23;100919.13;;;6.47;100.00
77147;BME280;66121;52.584;9.694;2024-02-04T07:18:49;100916.03;;;6.48;100.00
77147;BME280;66121;52.584;9.694;2024-02-04T07:21:14;100897.56;;;6.45;100.00
77147;BME280;66121;52.584;9.694;2024-02-04T07:23:39;100883.03;;;6.45;100.00
77147;BME280;66121;52.584;9.694;2024-02-04T07:26:05;100856.78;;;6.44;100.00
77147;BME280;66121;52.584;9.694;2024-02-04T07:28:30;100866.53;;;6.57;100.00
77147;BME280;66121;52.584;9.694;2024-02-04T07:30:55;100849.91;;;6.50;100.00
77147;BME280;66121;52.584;9.694;2024-02-04T07:33:21;100857.44;;;6.53;100.00
77147;BME280;66121;52.584;9.694;2024-02-04T07:35:46;100861.75;;;6.54;100.00
77147;BME280;66121;52.584;9.694;2024-02-04T07:38:11;100850.69;;;6.66;100.00
77147;BME280;66121;52.584;9.694;2024-02-04T07:40:37;100835.31;;;6.62;100.00
77147;BME280;66121;52.584;9.694;2024-02-04T07:43:02;100813.63;;;6.57;100.00
77147;BME280;66121;52.584;9.694;2024-02-04T07:45:27;100816.31;;;6.53;100.00
77147;BME280;66121;52.584;9.694;2024-02-04T07:47:53;100806.91;;;6.54;100.00
77147;BME280;66121;52.584;9.694;2024-02-04T07:50:18;100809.56;;;6.66;100.00
77147;BME280;66121;52.584;9.694;2024-02-04T07:52:43;100775.88;;;6.66;100.00
77147;BME280;66121;52.584;9.694;2024-02-04T07:55:09;100769.34;;;6.70;100.00
77147;BME280;66121;52.584;9.694;2024-02-04T07:57:35;100767.75;;;6.69;100.00
77147;BME280;66121;52.584;9.694;2024-02-04T08:00:01;100732.97;;;6.73;100.00
77147;BME280;66121;52.584;9.694;2024-02-04T08:02:28;100710.25;;;6.73;100.00
77147;BME280;66121;52.584;9.694;2024-02-04T08:04:54;100726.16;;;6.83;100.00
77147;BME280;66121;52.584;9.694;2024-02-04T08:07:19;100732.16;;;6.88;100.00
77147;BME280;66121;52.584;9.694;2024-02-04T08:09:45;100729.50;;;6.92;100.00
77147;BME280;66121;52.584;9.694;2024-02-04T08:12:11;100731.88;;;6.93;100.00
77147;BME280;66121;52.584;9.694;2024-02-04T08:14:37;100732.41;;;6.99;100.00
77147;BME280;66121;52.584;9.694;2024-02-04T08:17:02;100700.94;;;6.93;100.00
77147;BME280;66121;52.584;9.694;2024-02-04T08:19:27;100715.41;;;6.93;100.00
77147;BME280;66121;52.584;9.694;2024-02-04T08:21:53;100712.84;;;7.00;100.00
77147;BME280;66121;52.584;9.694;2024-02-04T08:24:18;100683.03;;;6.99;100.00
77147;BME280;66121;52.584;9.694;2024-02-04T08:26:44;100694.50;;;7.04;100.00
77147;BME280;66121;52.584;9.694;2024-02-04T08:29:09;100683.97;;;7.06;100.00
77147;BME280;66121;52.584;9.694;2024-02-04T08:31:36;100684.06;;;7.10;100.00
77147;BME280;66121;52.584;9.694;2024-02-04T08:34:02;100669.41;;;7.02;100.00
77147;BME280;66121;52.584;9.694;2024-02-04T08:36:28;100670.53;;;7.21;100.00
77147;BME280;66121;52.584;9.694;2024-02-04T08:38:56;100679.22;;;7.23;100.00
77147;BME280;66121;52.584;9.694;2024-02-04T08:41:21;100679.22;;;7.23;100.00
77147;BME280;66121;52.584;9.694;2024-02-04T08:43:46;100679.56;;;7.21;100.00
77147;BME280;66121;52.584;9.694;2024-02-04T08:46:12;100680.28;;;7.18;100.00
77147;BME280;66121;52.584;9.694;2024-02-04T08:48:38;100678.00;;;7.20;100.00
77147;BME280;66121;52.584;9.694;2024-02-04T08:51:03;100682.31;;;7.21;100.00
77147;BME280;66121;52.584;9.694;2024-02-04T08:53:29;100691.53;;;7.13;100.00
77147;BME280;66121;52.584;9.694;2024-02-04T08:55:54;100681.16;;;7.22;100.00
77147;BME280;66121;52.584;9.694;2024-02-04T08:58:19;100653.38;;;7.04;100.00
77147;BME280;66121;52.584;9.694;2024-02-04T09:00:45;100676.13;;;7.24;100.00
77147;BME280;66121;52.584;9.694;2024-02-04T09:03:11;100664.34;;;7.24;100.00
77147;BME280;66121;52.584;9.694;2024-02-04T09:05:37;100656.34;;;7.15;100.00
77147;BME280;66121;52.584;9.694;2024-02-04T09:08:03;100640.59;;;7.12;100.00
77147;BME280;66121;52.584;9.694;2024-02-04T09:10:28;100638.28;;;7.14;100.00
77147;BME280;66121;52.584;9.694;2024-02-04T09:12:54;100626.22;;;7.19;100.00
77147;BME280;66121;52.584;9.694;2024-02-04T09:15:19;100615.59;;;7.17;100.00
77147;BME280;66121;52.584;9.694;2024-02-04T09:17:44;100593.22;;;7.15;100.00
77147;BME280;66121;52.584;9.694;2024-02-04T09:20:10;100591.34;;;7.19;100.00
77147;BME280;66121;52.584;9.694;2024-02-04T09:22:36;100574.16;;;7.22;100.00
77147;BME280;66121;52.584;9.694;2024-02-04T09:25:01;100560.72;;;7.17;100.00
77147;BME280;66121;52.584;9.694;2024-02-04T09:27:26;100557.69;;;7.22;100.00
77147;BME280;66121;52.584;9.694;2024-02-04T09:29:51;100557.25;;;7.20;100.00
77147;BME280;66121;52.584;9.694;2024-02-04T09:32:17;100556.50;;;7.23;100.00
77147;BME280;66121;52.584;9.694;2024-02-04T09:34:42;100546.00;;;7.25;99.61
77147;BME280;66121;52.584;9.694;2024-02-04T09:37:08;100551.09;;;7.27;99.66
77147;BME280;66121;52.584;9.694;2024-02-04T09:39:34;100554.22;;;7.25;99.35
77147;BME280;66121;52.584;9.694;2024-02-04T09:41:59;100570.22;;;7.23;99.93
77147;BME280;66121;52.584;9.694;2024-02-04T09:44:24;100592.19;;;7.23;99.64
77147;BME280;66121;52.584;9.694;2024-02-04T09:46:50;100567.78;;;7.18;99.21
77147;BME280;66121;52.584;9.694;2024-02-04T09:49:17;100574.94;;;7.23;99.15
77147;BME280;66121;52.584;9.694;2024-02-04T09:51:43;100582.44;;;7.26;99.32
77147;BME280;66121;52.584;9.694;2024-02-04T09:54:10;100600.94;;;7.29;99.39
77147;BME280;66121;52.584;9.694;2024-02-04T09:56:37;100609.16;;;7.29;99.25
77147;BME280;66121;52.584;9.694;2024-02-04T09:59:04;100611.97;;;7.32;98.73
77147;BME280;66121;52.584;9.694;2024-02-04T10:01:29;100628.78;;;7.31;98.72
77147;BME280;66121;52.584;9.694;2024-02-04T10:03:56;100616.13;;;7.23;98.36
77147;BME280;66121;52.584;9.694;2024-02-04T10:06:21;100636.75;;;7.36;98.21
77147;BME280;66121;52.584;9.694;2024-02-04T10:08:47;100646.50;;;7.33;97.61
77147;BME280;66121;52.584;9.694;2024-02-04T10:11:13;100651.25;;;7.36;97.73
77147;BME280;66121;52.584;9.694;2024-02-04T10:13:44;100649.69;;;7.35;98.29
77147;BME280;66121;52.584;9.694;2024-02-04T10:16:11;100651.63;;;7.35;98.11
77147;BME280;66121;52.584;9.694;2024-02-04T10:18:37;100671.84;;;7.27;98.50
77147;BME280;66121;52.584;9.694;2024-02-04T10:21:02;100692.56;;;7.24;99.28
77147;BME280;66121;52.584;9.694;2024-02-04T10:23:27;100688.03;;;7.32;99.35
77147;BME280;66121;52.584;9.694;2024-02-04T10:25:59;100693.91;;;7.30;99.55
77147;BME280;66121;52.584;9.694;2024-02-04T10:28:25;100684.19;;;7.36;99.32
77147;BME280;66121;52.584;9.694;2024-02-04T10:30:51;100697.22;;;7.39;99.75
77147;BME280;66121;52.584;9.694;2024-02-04T10:33:16;100686.78;;;7.48;98.93
77147;BME280;66121;52.584;9.694;2024-02-04T10:35:42;100675.50;;;7.53;98.99
77147;BME280;66121;52.584;9.694;2024-02-04T10:38:08;100681.94;;;7.61;98.41
77147;BME280;66121;52.584;9.694;2024-02-04T10:40:33;100672.56;;;7.62;98.21
77147;BME280;66121;52.584;9.694;2024-02-04T10:43:03;100671.47;;;7.66;98.66
77147;BME280;66121;52.584;9.694;2024-02-04T10:45:32;100657.34;;;7.68;97.76
77147;BME280;66121;52.584;9.694;2024-02-04T10:48:01;100651.63;;;7.76;97.58
77147;BME280;66121;52.584;9.694;2024-02-04T10:50:27;100638.03;;;7.84;97.82
77147;BME280;66121;52.584;9.694;2024-02-04T10:52:58;100623.34;;;7.95;97.25
77147;BME280;66121;52.584;9.694;2024-02-04T10:55:28;100619.00;;;7.94;96.85
77147;BME280;66121;52.584;9.694;2024-02-04T10:57:56;100616.88;;;8.10;96.68
77147;BME280;66121;52.584;9.694;2024-02-04T11:00:22;100606.47;;;8.19;95.87
77147;BME280;66121;52.584;9.694;2024-02-04T11:02:48;100604.38;;;8.35;95.22
77147;BME280;66121;52.584;9.694;2024-02-04T11:05:15;100584.56;;;8.53;94.32
77147;BME280;66121;52.584;9.694;2024-02-04T11:07:42;100541.44;;;8.57;93.70
77147;BME280;66121;52.584;9.694;2024-02-04T11:10:10;100528.94;;;8.63;92.57
77147;BME280;66121;52.584;9.694;2024-02-04T11:12:37;100510.00;;;8.58;92.28
77147;BME280;66121;52.584;9.694;2024-02-04T11:15:04;100509.72;;;8.66;91.34
77147;BME280;66121;52.584;9.694;2024-02-04T11:18:11;100518.97;;;8.51;91.76
77147;BME280;66121;52.584;9.694;2024-02-04T11:23:37;100543.88;;;8.35;91.82
77147;BME280;66121;52.584;9.694;2024-02-04T11:26:06;100547.06;;;8.37;91.10
77147;BME280;66121;52.584;9.694;2024-02-04T11:28:32;100550.88;;;8.29;91.33
77147;BME280;66121;52.584;9.694;2024-02-04T11:30:58;100599.47;;;8.25;91.92
77147;BME280;66121;52.584;9.694;2024-02-04T11:33:23;100604.03;;;8.14;92.39
77147;BME280;66121;52.584;9.694;2024-02-04T11:35:59;100653.09;;;8.35;92.86
77147;BME280;66121;52.584;9.694;2024-02-04T11:38:51;100663.00;;;8.43;93.39
77147;BME280;66121;52.584;9.694;2024-02-04T11:41:24;100655.13;;;8.41;93.66
77147;BME280;66121;52.584;9.694;2024-02-04T11:43:53;100664.44;;;8.33;93.87
77147;BME280;66121;52.584;9.694;2024-02-04T11:46:21;100659.66;;;8.30;93.39
77147;BME280;66121;52.584;9.694;2024-02-04T11:48:53;100642.41;;;8.30;92.86
77147;BME280;66121;52.584;9.694;2024-02-04T11:51:22;100626.63;;;8.27;92.55
77147;BME280;66121;52.584;9.694;2024-02-04T11:53:52;100625.63;;;8.38;91.53
77147;BME280;66121;52.584;9.694;2024-02-04T11:56:18;100604.69;;;8.30;91.04
77147;BME280;66121;52.584;9.694;2024-02-04T11:58:44;100608.97;;;8.28;91.71
77147;BME280;66121;52.584;9.694;2024-02-04T12:01:10;100630.63;;;8.33;91.96
77147;BME280;66121;52.584;9.694;2024-02-04T12:03:36;100650.63;;;8.30;92.26
77147;BME280;66121;52.584;9.694;2024-02-04T12:06:05;100653.66;;;8.25;92.76
77147;BME280;66121;52.584;9.694;2024-02-04T12:08:32;100648.31;;;8.32;92.66
77147;BME280;66121;52.584;9.694;2024-02-04T12:10:59;100651.56;;;8.37;92.61
77147;BME280;66121;52.584;9.694;2024-02-04T12:13:25;100648.41;;;8.39;93.19
77147;BME280;66121;52.584;9.694;2024-02-04T12:15:52;100638.56;;;8.38;92.44
77147;BME280;66121;52.584;9.694;2024-02-04T12:18:18;100631.59;;;8.44;92.21
77147;BME280;66121;52.584;9.694;2024-02-04T12:20:46;100629.25;;;8.43;92.28
77147;BME280;66121;52.584;9.694;2024-02-04T12:23:12;100613.09;;;8.41;91.95
77147;BME280;66121;52.584;9.694;2024-02-04T12:25:37;100623.41;;;8.48;91.67
77147;BME280;66121;52.584;9.694;2024-02-04T12:28:03;100606.06;;;8.43;91.27
77147;BME280;66121;52.584;9.694;2024-02-04T12:30:30;100608.28;;;8.34;91.22
77147;BME280;66121;52.584;9.694;2024-02-04T12:33:03;100624.09;;;8.41;91.18
77147;BME280;66121;52.584;9.694;2024-02-04T12:35:29;100622.88;;;8.38;90.99
77147;BME280;66121;52.584;9.694;2024-02-04T12:37:57;100626.91;;;8.45;91.12
77147;BME280;66121;52.584;9.694;2024-02-04T12:40:29;100619.88;;;8.47;91.13
77147;BME280;66121;52.584;9.694;2024-02-04T12:42:56;100628.16;;;8.51;91.56
77147;BME280;66121;52.584;9.694;2024-02-04T12:45:22;100621.00;;;8.43;91.56
77147;BME280;66121;52.584;9.694;2024-02-04T12:47:52;100604.53;;;8.46;90.78
77147;BME280;66121;52.584;9.694;2024-02-04T12:50:18;100633.63;;;8.47;91.22
77147;BME280;66121;52.584;9.694;2024-02-04T12:52:45;100616.38;;;8.50;90.38
77147;BME280;66121;52.584;9.694;2024-02-04T12:55:24;100624.19;;;8.48;89.65